createdAt,value
2019-03-08T00:00:18.301Z,0.90
2019-03-08T00:05:24.761Z,0.90
2019-03-08T00:10:29.576Z,1.20
2019-03-08T00:15:34.369Z,1.10
2019-03-08T00:20:39.546Z,1.00
2019-03-08T00:25:44.742Z,0.80
2019-03-08T00:30:49.699Z,0.93
2019-03-08T00:35:54.536Z,1.00
2019-03-08T00:40:59.309Z,1.10
2019-03-08T00:46:04.622Z,0.90
2019-03-08T00:51:09.392Z,0.77
2019-03-08T00:56:14.255Z,1.00
2019-03-08T01:01:19.236Z,1.10
2019-03-08T01:06:23.960Z,0.77
2019-03-08T01:11:28.734Z,1.00
2019-03-08T01:16:33.526Z,0.70
2019-03-08T01:21:38.384Z,0.90
2019-03-08T01:26:43.229Z,1.00
2019-03-08T01:31:48.042Z,0.90
2019-03-08T01:36:52.795Z,0.80
2019-03-08T01:41:57.648Z,1.00
2019-03-08T01:47:02.417Z,1.10
2019-03-08T01:52:07.138Z,1.20
2019-03-08T01:57:11.927Z,1.00
2019-03-08T02:02:16.766Z,0.97
2019-03-08T02:07:21.976Z,0.80
2019-03-08T02:12:27.048Z,1.10
2019-03-08T02:17:31.842Z,1.00
2019-03-08T02:22:36.765Z,1.10
2019-03-08T02:27:41.733Z,0.90
2019-03-08T02:32:46.774Z,1.00
2019-03-08T02:37:51.637Z,1.00
2019-03-08T02:42:56.511Z,1.13
2019-03-08T02:48:01.352Z,1.13
2019-03-08T02:53:07.608Z,1.30
2019-03-08T02:58:12.560Z,0.90
2019-03-08T03:03:17.925Z,1.02
2019-03-08T03:08:22.742Z,1.00
2019-03-08T03:13:27.901Z,0.97
2019-03-08T03:18:32.633Z,1.00
2019-03-08T03:23:37.481Z,1.00
2019-03-08T03:28:42.363Z,1.20
2019-03-08T03:33:48.051Z,1.17
2019-03-08T03:38:52.999Z,0.93
2019-03-08T03:43:57.885Z,1.03
2019-03-08T03:49:02.597Z,0.90
2019-03-08T03:54:07.701Z,1.20
2019-03-08T03:59:12.437Z,1.30
2019-03-08T04:04:17.196Z,0.90
2019-03-08T04:09:22.013Z,1.00
2019-03-08T04:14:26.836Z,2.20
2019-03-08T04:19:31.654Z,0.80
2019-03-08T04:24:36.462Z,0.63
2019-03-08T04:29:41.291Z,1.00
2019-03-08T04:34:46.079Z,1.00
2019-03-08T04:39:51.102Z,1.00
2019-03-08T04:44:55.920Z,1.10
2019-03-08T04:50:00.756Z,0.83
2019-03-08T04:55:07.525Z,0.80
2019-03-08T05:00:13.360Z,0.70
2019-03-08T05:05:18.080Z,0.85
2019-03-08T05:15:27.769Z,1.00
2019-03-08T05:20:32.581Z,0.70
2019-03-08T05:25:37.378Z,0.83
2019-03-08T05:30:42.361Z,0.90
2019-03-08T05:35:47.138Z,0.80
2019-03-08T05:40:52.245Z,1.20
2019-03-08T05:45:57.019Z,0.90
2019-03-08T05:51:01.868Z,0.80
2019-03-08T05:56:06.674Z,1.10
2019-03-08T06:01:11.373Z,1.00
2019-03-08T06:06:16.180Z,0.80
2019-03-08T06:11:21.698Z,0.77
2019-03-08T06:16:26.523Z,1.10
2019-03-08T06:21:31.390Z,0.90
2019-03-08T06:26:37.235Z,0.90
2019-03-08T06:31:42.188Z,1.00
2019-03-08T06:37:06.257Z,1.03
2019-03-08T06:42:11.060Z,0.80
2019-03-08T06:47:15.909Z,0.80
2019-03-08T06:52:21.676Z,0.73
2019-03-08T06:57:26.381Z,0.77
2019-03-08T07:02:31.252Z,0.90
2019-03-08T07:07:36.259Z,0.80
2019-03-08T07:12:41.114Z,0.80
2019-03-08T07:17:45.945Z,0.70
2019-03-08T07:23:05.650Z,0.80
2019-03-08T07:28:34.475Z,0.90
2019-03-08T07:33:53.183Z,0.97
2019-03-08T07:39:12.966Z,1.00
2019-03-08T07:44:40.094Z,1.10
2019-03-08T07:49:53.948Z,1.20
2019-03-08T07:55:20.926Z,0.93
2019-03-08T08:00:57.209Z,0.90
2019-03-08T08:06:06.554Z,1.00
2019-03-08T08:11:42.716Z,1.00
2019-03-08T08:17:06.310Z,1.30
2019-03-08T08:22:39.090Z,0.90
2019-03-08T08:28:01.929Z,1.07
2019-03-08T08:33:25.591Z,1.27
2019-03-08T08:38:49.493Z,1.60
2019-03-08T08:44:26.116Z,1.60
2019-03-08T08:49:54.859Z,1.30
2019-03-08T08:55:19.203Z,2.73
2019-03-08T09:00:42.127Z,1.30
2019-03-08T09:06:17.329Z,1.43
2019-03-08T09:11:27.339Z,1.50
2019-03-08T09:16:51.171Z,1.80
2019-03-08T09:22:15.439Z,1.63
2019-03-08T09:27:25.099Z,2.00
2019-03-08T09:32:47.477Z,2.07
2019-03-08T09:37:57.744Z,1.80
2019-03-08T09:43:13.721Z,1.87
2019-03-08T09:48:48.497Z,2.10
2019-03-08T09:54:09.656Z,2.07
2019-03-08T09:59:27.710Z,2.37
2019-03-08T10:04:50.377Z,2.17
2019-03-08T10:10:13.314Z,2.23
2019-03-08T10:15:36.704Z,2.20
2019-03-08T10:21:05.708Z,1.87
2019-03-08T10:26:29.540Z,2.60
2019-03-08T10:31:40.803Z,2.80
2019-03-08T10:37:02.567Z,2.97
2019-03-08T10:42:26.189Z,1.90
2019-03-08T10:47:55.965Z,2.03
2019-03-08T10:53:18.567Z,1.60
2019-03-08T10:58:46.840Z,1.20
2019-03-08T11:04:00.559Z,1.37
2019-03-08T11:09:30.059Z,1.23
2019-03-08T11:14:58.359Z,1.50
2019-03-08T11:20:28.275Z,1.70
2019-03-08T11:26:07.677Z,2.40
2019-03-08T11:31:24.119Z,2.30
2019-03-08T11:36:42.874Z,1.77
2019-03-08T11:41:58.329Z,1.13
2019-03-08T11:47:11.057Z,1.17
2019-03-08T11:52:33.700Z,0.90
2019-03-08T11:58:09.711Z,1.10
2019-03-08T12:03:46.213Z,1.10
2019-03-08T12:08:57.907Z,1.27
2019-03-08T12:14:20.896Z,1.37
2019-03-08T12:19:35.331Z,2.13
2019-03-08T12:24:52.252Z,1.80
2019-03-08T12:30:16.855Z,2.17
2019-03-08T12:35:35.329Z,1.83
2019-03-08T12:40:58.191Z,1.60
2019-03-08T12:46:40.811Z,1.70
2019-03-08T12:51:50.758Z,1.70
2019-03-08T12:57:13.333Z,1.60
2019-03-08T13:02:43.515Z,1.90
2019-03-08T13:08:12.092Z,2.07
2019-03-08T13:13:16.932Z,1.77
2019-03-08T13:18:21.809Z,1.55
2019-03-08T13:23:28.464Z,1.83
2019-03-08T13:28:33.482Z,2.22
2019-03-08T13:33:38.609Z,2.30
2019-03-08T13:38:43.721Z,1.87
2019-03-08T13:43:48.618Z,2.27
2019-03-08T13:48:53.508Z,2.50
2019-03-08T13:53:58.392Z,2.23
2019-03-08T13:59:03.125Z,1.80
2019-03-08T14:04:07.970Z,1.63
2019-03-08T14:09:12.783Z,1.87
2019-03-08T14:14:17.914Z,1.67
2019-03-08T14:19:22.977Z,1.73
2019-03-08T14:24:27.836Z,1.70
2019-03-08T14:29:32.638Z,2.07
2019-03-08T14:34:37.422Z,1.72
2019-03-08T14:39:44.364Z,1.90
2019-03-08T14:45:20.074Z,1.27
2019-03-08T14:50:25.027Z,1.63
2019-03-08T14:55:29.793Z,1.60
2019-03-08T15:00:34.958Z,1.37
2019-03-08T15:05:40.099Z,2.00
2019-03-08T15:10:47.119Z,1.50
2019-03-08T15:15:51.379Z,2.10
2019-03-08T15:20:58.536Z,2.13
2019-03-08T15:26:02.610Z,1.30
2019-03-08T15:31:07.332Z,1.42
2019-03-08T15:36:12.134Z,1.40
2019-03-08T15:41:17.269Z,1.60
2019-03-08T15:46:22.465Z,1.80
2019-03-08T15:51:29.201Z,1.70
2019-03-08T15:56:34.215Z,1.40
2019-03-08T16:01:39.038Z,1.60
2019-03-08T16:06:45.374Z,1.73
2019-03-08T16:11:50.346Z,1.23
2019-03-08T16:16:55.182Z,1.73
2019-03-08T16:22:00.240Z,1.50
2019-03-08T16:27:05.109Z,1.53
2019-03-08T16:32:34.571Z,1.97
2019-03-08T16:38:04.074Z,2.07
2019-03-08T16:43:30.699Z,1.60
2019-03-08T16:48:54.307Z,1.40
2019-03-08T16:54:16.218Z,1.70
2019-03-08T16:59:39.123Z,2.07
2019-03-08T17:05:04.523Z,2.33
2019-03-08T17:10:33.276Z,2.50
2019-03-08T17:15:45.209Z,1.60
2019-03-08T17:20:56.959Z,1.53
2019-03-08T17:26:26.889Z,2.30
2019-03-08T17:31:40.817Z,1.73
2019-03-08T17:36:57.391Z,2.20
2019-03-08T17:42:21.309Z,2.30
2019-03-08T17:47:44.297Z,1.70
2019-03-08T17:53:08.044Z,1.90
2019-03-08T17:58:26.659Z,1.82
2019-03-08T18:03:41.891Z,2.30
2019-03-08T18:08:53.911Z,2.40
2019-03-08T18:14:17.764Z,2.07
2019-03-08T18:19:47.485Z,2.10
2019-03-08T18:25:05.935Z,2.27
2019-03-08T18:30:30.157Z,2.10
2019-03-08T18:35:53.914Z,2.23
2019-03-08T18:41:05.754Z,2.47
2019-03-08T18:46:38.831Z,3.07
2019-03-08T18:51:51.375Z,2.43
2019-03-08T18:57:09.052Z,2.73
2019-03-08T19:02:28.492Z,2.97
2019-03-08T19:07:43.602Z,2.40
2019-03-08T19:13:16.372Z,2.63
2019-03-08T19:18:37.068Z,3.50
2019-03-08T19:23:47.440Z,3.10
2019-03-08T19:29:04.794Z,2.80
2019-03-08T19:34:29.333Z,2.57
2019-03-08T19:39:56.447Z,2.40
2019-03-08T19:45:15.680Z,2.27
2019-03-08T19:50:36.722Z,2.90
2019-03-08T19:55:59.282Z,2.50
2019-03-08T20:01:23.265Z,2.40
2019-03-08T20:06:45.959Z,2.43
2019-03-08T20:12:19.099Z,2.33
2019-03-08T20:17:42.944Z,2.50
2019-03-08T20:23:03.319Z,2.97
2019-03-08T20:28:22.298Z,2.60
2019-03-08T20:33:33.690Z,3.07
2019-03-08T20:38:55.086Z,2.53
2019-03-08T20:44:24.772Z,2.30
2019-03-08T20:49:29.592Z,2.93
2019-03-08T20:54:34.427Z,2.97
2019-03-08T20:59:39.219Z,2.47
2019-03-08T21:04:43.939Z,2.77
2019-03-08T21:09:49.639Z,2.70
2019-03-08T21:14:54.421Z,2.50
2019-03-08T21:19:59.476Z,2.80
2019-03-08T21:25:05.672Z,2.93
2019-03-08T21:30:13.860Z,2.60
2019-03-08T21:35:18.711Z,2.60
2019-03-08T21:40:23.755Z,2.30
2019-03-08T21:45:28.521Z,2.83
2019-03-08T21:50:33.593Z,3.10
2019-03-08T21:55:38.399Z,2.83
2019-03-08T22:00:43.753Z,2.87
2019-03-08T22:05:48.519Z,3.07
2019-03-08T22:11:10.871Z,3.27
2019-03-08T22:16:15.925Z,2.70
2019-03-08T22:21:20.624Z,2.80
2019-03-08T22:26:25.346Z,2.97
2019-03-08T22:31:30.036Z,2.87
2019-03-08T22:36:34.820Z,2.60
2019-03-08T22:41:39.646Z,2.17
2019-03-08T22:46:46.092Z,2.70
2019-03-08T22:51:51.629Z,2.57
2019-03-08T22:56:56.358Z,2.37
2019-03-08T23:02:09.366Z,2.00
2019-03-08T23:07:14.139Z,2.35
2019-03-08T23:12:19.166Z,2.47
2019-03-08T23:17:24.038Z,2.57
2019-03-08T23:22:28.949Z,2.47
2019-03-08T23:27:38.740Z,2.93
2019-03-08T23:32:46.811Z,3.40
2019-03-08T23:37:51.720Z,2.60
2019-03-08T23:42:56.428Z,2.60
2019-03-08T23:48:01.172Z,2.47
2019-03-08T23:53:06.090Z,2.67
2019-03-08T23:58:11.838Z,2.70
